createdAt,value
2024-03-02T00:00:10.202Z,88.90
2024-03-02T00:02:43.636Z,88.98
2024-03-02T00:05:14.693Z,88.95
2024-03-02T00:07:45.667Z,88.47
2024-03-02T00:10:37.813Z,88.27
2024-03-02T00:13:04.253Z,89.72
2024-03-02T00:15:44.923Z,88.77
2024-03-02T00:18:21.818Z,88.79
2024-03-02T00:20:48.452Z,88.48
2024-03-02T00:23:18.337Z,89.07
2024-03-02T00:25:47.731Z,89.25
2024-03-02T00:28:20.234Z,89.12
2024-03-02T00:31:01.055Z,89.32
2024-03-02T00:33:29.582Z,89.46
2024-03-02T00:35:56.673Z,89.12
2024-03-02T00:38:23.632Z,88.95
2024-03-02T00:40:50.318Z,89.53
2024-03-02T00:43:43.523Z,89.04
2024-03-02T00:46:17.318Z,89.18
2024-03-02T00:48:52.316Z,89.59
2024-03-02T00:51:18.919Z,89.88
2024-03-02T00:53:45.424Z,89.60
2024-03-02T00:56:15.701Z,89.44
2024-03-02T00:58:42.102Z,89.39
2024-03-02T01:01:08.822Z,89.73
2024-03-02T01:03:35.630Z,89.94
2024-03-02T01:06:02.186Z,89.74
2024-03-02T01:08:28.694Z,89.93
2024-03-02T01:10:55.766Z,89.35
2024-03-02T01:13:24.173Z,89.35
2024-03-02T01:15:51.383Z,89.21
2024-03-02T01:18:18.203Z,89.41
2024-03-02T01:20:44.805Z,89.42
2024-03-02T01:23:11.226Z,89.27
2024-03-02T01:25:37.879Z,89.85
2024-03-02T01:28:05.892Z,89.94
2024-03-02T01:30:32.368Z,89.82
2024-03-02T01:33:00.676Z,89.37
2024-03-02T01:35:27.747Z,89.84
2024-03-02T01:37:54.629Z,88.87
2024-03-02T01:40:21.484Z,89.76
2024-03-02T01:42:48.045Z,88.77
2024-03-02T01:45:14.682Z,89.40
2024-03-02T01:47:41.303Z,89.87
2024-03-02T01:50:08.487Z,89.04
2024-03-02T01:52:34.940Z,89.46
2024-03-02T01:55:01.468Z,88.87
2024-03-02T01:57:28.059Z,89.53
2024-03-02T01:59:54.721Z,89.60
2024-03-02T02:02:21.209Z,89.68
2024-03-02T02:04:47.710Z,89.35
2024-03-02T02:07:15.390Z,90.17
2024-03-02T02:09:44.956Z,89.82
2024-03-02T02:12:11.540Z,89.44
2024-03-02T02:14:38.230Z,89.88
2024-03-02T02:17:04.834Z,89.41
2024-03-02T02:19:31.232Z,89.64
2024-03-02T02:21:57.691Z,90.35
2024-03-02T02:24:24.240Z,89.70
2024-03-02T02:26:50.807Z,89.35
2024-03-02T02:29:17.302Z,89.40
2024-03-02T02:31:43.942Z,89.89
2024-03-02T02:34:10.548Z,90.15
2024-03-02T02:36:40.262Z,90.23
2024-03-02T02:39:08.819Z,89.72
2024-03-02T02:41:35.189Z,89.33
2024-03-02T02:44:01.567Z,89.35
2024-03-02T02:46:27.985Z,89.04
2024-03-02T02:48:54.912Z,89.40
2024-03-02T02:51:21.449Z,88.86
2024-03-02T02:53:48.003Z,89.70
2024-03-02T02:56:14.401Z,89.09
2024-03-02T02:58:42.364Z,89.51
2024-03-02T03:01:08.916Z,88.92
2024-03-02T03:03:35.545Z,89.49
2024-03-02T03:06:03.252Z,89.01
2024-03-02T03:08:30.078Z,89.31
2024-03-02T03:10:56.582Z,89.53
2024-03-02T03:13:23.225Z,89.91
2024-03-02T03:15:49.760Z,89.77
2024-03-02T03:18:16.269Z,89.44
2024-03-02T03:20:42.751Z,89.74
2024-03-02T03:23:09.766Z,89.38
2024-03-02T03:25:36.203Z,89.27
2024-03-02T03:28:02.945Z,89.20
2024-03-02T03:30:29.568Z,89.17
2024-03-02T03:32:55.964Z,89.82
2024-03-02T03:35:22.362Z,90.13
2024-03-02T03:37:48.798Z,89.17
2024-03-02T03:40:15.805Z,89.55
2024-03-02T03:42:42.243Z,89.99
2024-03-02T03:45:09.374Z,89.45
2024-03-02T03:47:36.024Z,89.06
2024-03-02T03:50:05.651Z,89.88
2024-03-02T03:52:32.109Z,89.45
2024-03-02T03:54:58.614Z,90.11
2024-03-02T03:57:25.181Z,89.87
2024-03-02T03:59:51.715Z,89.61
2024-03-02T04:02:18.127Z,90.14
2024-03-02T04:04:44.794Z,89.33
2024-03-02T04:07:11.281Z,89.80
2024-03-02T04:09:37.695Z,89.47
2024-03-02T04:12:04.600Z,89.50
2024-03-02T04:14:31.049Z,89.79
2024-03-02T04:16:57.470Z,89.85
2024-03-02T04:19:23.843Z,89.69
2024-03-02T04:21:50.377Z,89.95
2024-03-02T04:24:16.915Z,89.34
2024-03-02T04:26:43.293Z,89.69
2024-03-02T04:29:09.678Z,89.72
2024-03-02T04:31:36.088Z,89.24
2024-03-02T04:34:02.574Z,90.04
2024-03-02T04:36:29.052Z,89.62
2024-03-02T04:38:55.478Z,89.55
2024-03-02T04:41:21.858Z,90.08
2024-03-02T04:43:48.295Z,90.10
2024-03-02T04:46:14.715Z,90.02
2024-03-02T04:48:41.166Z,89.64
2024-03-02T04:51:07.576Z,90.40
2024-03-02T04:53:34.005Z,89.91
2024-03-02T04:56:09.258Z,89.51
2024-03-02T04:58:35.663Z,89.63
2024-03-02T05:01:02.103Z,89.45
2024-03-02T05:03:28.577Z,89.87
2024-03-02T05:05:55.534Z,89.70
2024-03-02T05:08:21.929Z,90.08
2024-03-02T05:10:48.386Z,90.29
2024-03-02T05:13:14.777Z,89.70
2024-03-02T05:15:41.728Z,90.07
2024-03-02T05:18:08.193Z,89.62
2024-03-02T05:20:34.599Z,90.01
2024-03-02T05:23:01.207Z,90.40
2024-03-02T05:25:27.600Z,89.69
2024-03-02T05:27:54.163Z,90.04
2024-03-02T05:30:20.609Z,90.18
2024-03-02T05:32:47.051Z,90.00
2024-03-02T05:35:13.962Z,90.27
2024-03-02T05:37:40.592Z,90.68
2024-03-02T05:40:07.678Z,90.23
2024-03-02T05:42:34.188Z,90.47
2024-03-02T05:45:00.721Z,89.37
2024-03-02T05:47:27.354Z,90.32
2024-03-02T05:49:53.737Z,89.87
2024-03-02T05:52:20.135Z,89.69
2024-03-02T05:54:46.602Z,89.43
2024-03-02T05:57:33.055Z,89.32
2024-03-02T05:59:59.911Z,89.71
2024-03-02T06:02:26.360Z,89.45
2024-03-02T06:04:55.966Z,89.65
2024-03-02T06:07:22.373Z,89.88
2024-03-02T06:09:51.806Z,90.14
2024-03-02T06:12:18.560Z,89.87
2024-03-02T06:14:45.018Z,90.00
2024-03-02T06:17:11.407Z,90.30
2024-03-02T06:19:37.867Z,89.90
2024-03-02T06:22:04.997Z,89.97
2024-03-02T06:24:31.441Z,89.73
2024-03-02T06:26:57.831Z,90.13
2024-03-02T06:29:24.206Z,89.21
2024-03-02T06:31:53.467Z,89.99
2024-03-02T06:34:21.239Z,89.49
2024-03-02T06:36:47.637Z,89.74
2024-03-02T06:39:14.039Z,89.38
2024-03-02T06:41:40.455Z,89.82
2024-03-02T06:44:07.574Z,90.17
2024-03-02T06:46:33.971Z,89.38
2024-03-02T06:49:00.618Z,89.77
2024-03-02T06:51:27.407Z,89.87
2024-03-02T06:53:53.835Z,89.63
2024-03-02T06:56:20.275Z,89.74
2024-03-02T06:58:46.817Z,89.75
2024-03-02T07:01:13.289Z,89.92
2024-03-02T07:03:42.604Z,89.53
2024-03-02T07:06:09.036Z,89.66
2024-03-02T07:08:35.665Z,89.38
2024-03-02T07:11:02.150Z,89.51
2024-03-02T07:13:28.624Z,89.84
2024-03-02T07:16:00.958Z,89.73
2024-03-02T07:18:27.479Z,89.87
2024-03-02T07:20:53.911Z,90.08
2024-03-02T07:23:21.608Z,89.96
2024-03-02T07:28:17.424Z,90.12
2024-03-02T07:30:44.238Z,90.47
2024-03-02T07:33:10.724Z,90.51
2024-03-02T07:35:37.120Z,90.03
2024-03-02T07:38:03.604Z,90.30
2024-03-02T07:40:30.260Z,90.72
2024-03-02T07:42:57.487Z,90.10
2024-03-02T07:45:23.974Z,90.44
2024-03-02T07:47:51.112Z,90.46
2024-03-02T07:50:17.745Z,90.94
2024-03-02T07:52:44.171Z,90.35
2024-03-02T07:55:10.559Z,91.16
2024-03-02T07:57:37.002Z,91.13
2024-03-02T08:00:03.914Z,91.47
2024-03-02T08:02:30.352Z,91.02
2024-03-02T08:04:56.814Z,91.34
2024-03-02T08:07:23.377Z,91.19
2024-03-02T08:09:49.760Z,91.03
2024-03-02T08:12:16.363Z,90.67
2024-03-02T08:14:42.933Z,90.66
2024-03-02T08:17:10.637Z,90.77
2024-03-02T08:19:37.955Z,90.41
2024-03-02T08:22:04.763Z,90.39
2024-03-02T08:24:31.433Z,90.55
2024-03-02T08:26:58.901Z,90.05
2024-03-02T08:29:25.638Z,89.09
2024-03-02T08:31:52.046Z,88.08
2024-03-02T08:34:18.438Z,87.76
2024-03-02T08:36:45.105Z,87.47
2024-03-02T08:39:16.181Z,86.88
2024-03-02T08:41:46.383Z,86.28
2024-03-02T08:44:13.652Z,86.38
2024-03-02T08:46:40.743Z,84.91
2024-03-02T08:49:08.104Z,84.67
2024-03-02T08:51:34.604Z,84.41
2024-03-02T08:54:01.045Z,84.44
2024-03-02T08:56:27.542Z,83.50
2024-03-02T08:58:54.233Z,82.73
2024-03-02T09:01:20.775Z,81.64
2024-03-02T09:03:47.565Z,81.13
2024-03-02T09:06:15.257Z,80.48
2024-03-02T09:08:41.944Z,78.51
2024-03-02T09:11:08.605Z,77.02
2024-03-02T09:13:35.404Z,76.91
2024-03-02T09:16:01.931Z,76.01
2024-03-02T09:18:28.380Z,75.14
2024-03-02T09:20:54.782Z,76.22
2024-03-02T09:23:22.118Z,75.91
2024-03-02T09:25:48.800Z,76.79
2024-03-02T09:28:17.055Z,74.83
2024-03-02T09:30:43.520Z,73.88
2024-03-02T09:35:39.293Z,72.04
2024-03-02T09:38:05.873Z,73.10
2024-03-02T09:40:33.271Z,72.70
2024-03-02T09:43:00.111Z,70.21
2024-03-02T09:45:27.792Z,70.66
2024-03-02T09:47:54.252Z,67.35
2024-03-02T09:50:23.771Z,68.77
2024-03-02T09:52:53.563Z,69.23
2024-03-02T09:55:20.351Z,67.68
2024-03-02T09:57:47.465Z,68.03
2024-03-02T10:00:16.108Z,67.97
2024-03-02T10:02:43.435Z,67.58
2024-03-02T10:05:10.362Z,67.02
2024-03-02T10:07:36.811Z,67.11
2024-03-02T10:10:16.482Z,65.28
2024-03-02T10:12:42.995Z,67.09
2024-03-02T10:15:10.725Z,63.55
2024-03-02T10:17:37.591Z,66.33
2024-03-02T10:20:26.473Z,65.29
2024-03-02T10:22:53.183Z,66.71
2024-03-02T10:25:43.057Z,63.39
2024-03-02T10:28:17.563Z,65.75
2024-03-02T10:30:44.298Z,63.50
2024-03-02T10:33:10.856Z,63.67
2024-03-02T10:35:38.845Z,64.77
2024-03-02T10:38:07.197Z,65.44
2024-03-02T10:40:34.054Z,65.49
2024-03-02T10:43:04.681Z,63.12
2024-03-02T10:45:32.726Z,63.84
2024-03-02T10:47:59.497Z,64.86
2024-03-02T10:50:25.923Z,65.88
2024-03-02T10:52:52.496Z,66.24
2024-03-02T10:55:20.094Z,65.45
2024-03-02T10:57:54.847Z,65.76
2024-03-02T11:00:27.764Z,66.46
2024-03-02T11:02:59.246Z,65.71
2024-03-02T11:05:32.490Z,65.50
2024-03-02T11:08:04.417Z,65.80
2024-03-02T11:10:52.494Z,63.70
2024-03-02T11:13:26.393Z,65.69
2024-03-02T11:15:56.875Z,67.21
2024-03-02T11:18:23.834Z,66.13
2024-03-02T11:20:50.435Z,66.82
2024-03-02T11:23:16.861Z,65.82
2024-03-02T11:25:43.250Z,66.41
2024-03-02T11:28:12.829Z,66.62
2024-03-02T11:30:39.858Z,67.67
2024-03-02T11:33:12.368Z,65.96
2024-03-02T11:35:44.434Z,66.16
2024-03-02T11:38:11.488Z,66.39
2024-03-02T11:40:40.416Z,65.30
2024-03-02T11:43:09.158Z,65.07
2024-03-02T11:45:41.198Z,64.07
2024-03-02T11:48:13.634Z,64.93
2024-03-02T11:50:48.108Z,64.86
2024-03-02T11:53:14.983Z,66.35
2024-03-02T11:55:42.003Z,65.87
2024-03-02T11:58:09.528Z,66.48
2024-03-02T12:00:36.450Z,64.96
2024-03-02T12:03:06.490Z,65.48
2024-03-02T12:05:33.930Z,65.80
2024-03-02T12:08:03.123Z,65.35
2024-03-02T12:10:30.490Z,65.58
2024-03-02T12:13:00.866Z,64.68
2024-03-02T12:15:28.565Z,66.07
2024-03-02T12:18:02.962Z,63.69
2024-03-02T12:20:31.679Z,64.51
2024-03-02T12:23:03.311Z,64.11
2024-03-02T12:25:32.533Z,61.80
2024-03-02T12:28:01.624Z,62.84
2024-03-02T12:30:31.122Z,63.06
2024-03-02T12:32:57.799Z,63.18
2024-03-02T12:35:25.981Z,63.43
2024-03-02T12:37:53.845Z,63.30
2024-03-02T12:40:21.487Z,63.02
2024-03-02T12:42:49.202Z,62.23
2024-03-02T12:45:16.553Z,63.67
2024-03-02T12:47:43.800Z,60.69
2024-03-02T12:50:11.420Z,61.47
2024-03-02T12:52:38.054Z,62.43
2024-03-02T12:55:06.502Z,62.12
2024-03-02T12:57:34.422Z,63.39
2024-03-02T13:00:02.096Z,62.75
2024-03-02T13:02:30.520Z,63.05
2024-03-02T13:04:57.739Z,63.53
2024-03-02T13:07:27.756Z,62.91
2024-03-02T13:09:58.698Z,63.22
2024-03-02T13:12:25.868Z,63.34
2024-03-02T13:14:55.614Z,60.85
2024-03-02T13:17:22.378Z,62.85
2024-03-02T13:19:56.591Z,62.00
2024-03-02T13:22:23.524Z,63.58
2024-03-02T13:24:51.577Z,62.85
2024-03-02T13:27:21.087Z,62.38
2024-03-02T13:29:50.865Z,62.04
2024-03-02T13:32:18.112Z,62.10
2024-03-02T13:34:44.702Z,61.39
2024-03-02T13:37:11.266Z,62.14
2024-03-02T13:39:43.966Z,62.26
2024-03-02T13:42:15.927Z,61.66
2024-03-02T13:44:46.629Z,60.88
2024-03-02T13:47:13.055Z,60.40
2024-03-02T13:49:44.652Z,60.50
2024-03-02T13:52:14.290Z,60.81
2024-03-02T13:54:42.804Z,59.69
2024-03-02T13:57:10.656Z,61.42
2024-03-02T13:59:37.970Z,61.38
2024-03-02T14:02:06.079Z,61.61
2024-03-02T14:04:34.593Z,61.03
2024-03-02T14:07:01.733Z,60.28
2024-03-02T14:09:28.986Z,60.09
2024-03-02T14:11:56.562Z,59.96
2024-03-02T14:14:23.045Z,59.45
2024-03-02T14:16:49.691Z,58.15
2024-03-02T14:19:16.182Z,56.49
2024-03-02T14:21:42.736Z,54.71
2024-03-02T14:24:09.365Z,54.24
2024-03-02T14:26:37.577Z,55.24
2024-03-02T14:29:04.584Z,49.30
2024-03-02T14:31:32.290Z,51.80
2024-03-02T14:33:59.369Z,49.78
2024-03-02T14:36:27.002Z,50.41
2024-03-02T14:38:53.531Z,46.95
2024-03-02T14:41:19.951Z,46.66
2024-03-02T14:43:46.381Z,45.48
2024-03-02T14:46:13.410Z,45.37
2024-03-02T14:48:40.175Z,42.57
2024-03-02T14:51:06.875Z,40.74
2024-03-02T14:53:33.331Z,42.27
2024-03-02T14:55:59.976Z,41.33
2024-03-02T14:58:27.649Z,38.95
2024-03-02T15:00:54.234Z,38.24
2024-03-02T15:03:20.772Z,39.20
2024-03-02T15:05:47.521Z,38.64
2024-03-02T15:08:14.062Z,38.63
2024-03-02T15:10:42.404Z,36.37
2024-03-02T15:13:10.087Z,35.70
2024-03-02T15:15:36.912Z,39.52
2024-03-02T15:18:06.523Z,38.02
2024-03-02T15:20:33.438Z,38.27
2024-03-02T15:23:00.066Z,36.88
2024-03-02T15:25:26.458Z,38.97
2024-03-02T15:27:52.951Z,37.99
2024-03-02T15:30:19.482Z,37.83
2024-03-02T15:32:45.951Z,37.43
2024-03-02T15:35:12.349Z,38.47
2024-03-02T15:37:38.755Z,37.65
2024-03-02T15:40:09.630Z,38.08
2024-03-02T15:42:36.637Z,36.46
2024-03-02T15:45:05.240Z,38.96
2024-03-02T15:47:31.888Z,38.27
2024-03-02T15:49:58.304Z,39.47
2024-03-02T15:52:24.668Z,39.75
2024-03-02T15:54:51.418Z,40.41
2024-03-02T15:57:18.123Z,40.42
2024-03-02T15:59:45.227Z,40.46
2024-03-02T16:02:11.788Z,41.21
2024-03-02T16:04:38.381Z,43.00
2024-03-02T16:07:04.995Z,45.22
2024-03-02T16:09:31.466Z,47.74
2024-03-02T16:11:57.990Z,48.84
2024-03-02T16:14:24.509Z,50.21
2024-03-02T16:16:51.032Z,51.67
2024-03-02T16:19:25.547Z,52.77
2024-03-02T16:21:58.953Z,54.00
2024-03-02T16:24:25.474Z,55.52
2024-03-02T16:26:51.975Z,56.26
2024-03-02T16:29:18.364Z,57.83
2024-03-02T16:31:44.803Z,58.51
2024-03-02T16:34:11.646Z,59.41
2024-03-02T16:36:39.225Z,60.11
2024-03-02T16:39:06.127Z,60.02
2024-03-02T16:41:34.057Z,61.69
2024-03-02T16:44:00.548Z,63.49
2024-03-02T16:46:27.085Z,64.08
2024-03-02T16:48:53.524Z,64.85
2024-03-02T16:51:19.977Z,65.57
2024-03-02T16:53:46.408Z,66.49
2024-03-02T16:56:12.885Z,65.77
2024-03-02T16:58:39.313Z,66.96
2024-03-02T17:01:05.803Z,67.23
2024-03-02T17:03:32.239Z,66.94
2024-03-02T17:05:58.675Z,67.59
2024-03-02T17:08:25.107Z,69.25
2024-03-02T17:10:51.789Z,69.79
2024-03-02T17:13:18.330Z,71.00
2024-03-02T17:15:44.863Z,70.63
2024-03-02T17:18:11.398Z,72.51
2024-03-02T17:20:37.880Z,70.94
2024-03-02T17:23:04.638Z,70.62
2024-03-02T17:25:31.048Z,71.08
2024-03-02T17:28:20.154Z,74.44
2024-03-02T17:30:46.640Z,73.26
2024-03-02T17:33:13.251Z,73.97
2024-03-02T17:35:39.747Z,73.91
2024-03-02T17:38:06.146Z,73.38
2024-03-02T17:40:32.745Z,75.02
2024-03-02T17:42:59.218Z,73.79
2024-03-02T17:45:25.747Z,74.01
2024-03-02T17:47:52.246Z,75.48
2024-03-02T17:50:18.699Z,75.53
2024-03-02T17:52:45.256Z,76.25
2024-03-02T17:55:11.746Z,75.92
2024-03-02T17:57:38.500Z,75.98
2024-03-02T18:00:06.045Z,77.38
2024-03-02T18:02:34.504Z,77.18
2024-03-02T18:05:00.912Z,75.74
2024-03-02T18:07:27.312Z,76.71
2024-03-02T18:09:53.873Z,77.34
2024-03-02T18:12:20.490Z,77.65
2024-03-02T18:14:46.933Z,78.65
2024-03-02T18:17:13.612Z,77.88
2024-03-02T18:19:40.172Z,78.25
2024-03-02T18:22:06.795Z,78.47
2024-03-02T18:24:36.482Z,78.61
2024-03-02T18:27:04.642Z,79.35
2024-03-02T18:29:31.049Z,79.11
2024-03-02T18:31:58.782Z,79.25
2024-03-02T18:34:25.414Z,80.09
2024-03-02T18:36:53.429Z,79.72
2024-03-02T18:39:20.955Z,79.57
2024-03-02T18:41:47.387Z,79.18
2024-03-02T18:44:13.841Z,79.78
2024-03-02T18:46:40.218Z,80.01
2024-03-02T18:49:07.164Z,79.94
2024-03-02T18:51:33.826Z,80.05
2024-03-02T18:54:00.231Z,79.82
2024-03-02T18:56:27.200Z,80.43
2024-03-02T18:58:53.769Z,80.42
2024-03-02T19:01:21.148Z,80.38
2024-03-02T19:03:47.991Z,80.47
2024-03-02T19:06:16.026Z,80.07
2024-03-02T19:08:42.757Z,80.83
2024-03-02T19:11:19.814Z,81.05
2024-03-02T19:13:46.429Z,80.98
2024-03-02T19:16:13.661Z,81.87
2024-03-02T19:18:41.079Z,81.95
2024-03-02T19:21:07.845Z,81.46
2024-03-02T19:23:40.343Z,82.19
2024-03-02T19:26:12.520Z,81.97
2024-03-02T19:28:38.945Z,82.18
2024-03-02T19:31:05.454Z,82.53
2024-03-02T19:33:31.971Z,83.43
2024-03-02T19:35:58.404Z,83.12
2024-03-02T19:38:26.491Z,83.17
2024-03-02T19:40:52.948Z,83.15
2024-03-02T19:43:19.555Z,83.37
2024-03-02T19:45:46.088Z,83.51
2024-03-02T19:48:12.716Z,85.15
2024-03-02T19:50:40.883Z,83.84
2024-03-02T19:53:07.267Z,84.02
2024-03-02T19:55:33.688Z,83.13
2024-03-02T19:58:00.189Z,82.79
2024-03-02T20:00:26.624Z,83.43
2024-03-02T20:02:53.088Z,83.34
2024-03-02T20:05:19.516Z,83.72
2024-03-02T20:07:46.052Z,83.63
2024-03-02T20:10:12.949Z,83.24
2024-03-02T20:12:39.603Z,84.04
2024-03-02T20:15:06.525Z,83.35
2024-03-02T20:17:33.117Z,83.04
2024-03-02T20:19:59.568Z,83.38
2024-03-02T20:22:26.127Z,83.88
2024-03-02T20:24:52.515Z,83.20
2024-03-02T20:27:22.496Z,83.63
2024-03-02T20:29:48.937Z,84.70
2024-03-02T20:32:15.708Z,84.75
2024-03-02T20:34:42.107Z,84.29
2024-03-02T20:37:08.567Z,85.39
2024-03-02T20:39:35.200Z,84.79
2024-03-02T20:42:01.714Z,84.23
2024-03-02T20:44:28.550Z,83.82
2024-03-02T20:46:55.069Z,83.37
2024-03-02T20:49:21.818Z,83.61
2024-03-02T20:51:48.297Z,84.15
2024-03-02T20:54:14.720Z,83.48
2024-03-02T20:56:44.115Z,83.86
2024-03-02T20:59:10.622Z,83.74
2024-03-02T21:04:23.873Z,83.91
2024-03-02T21:06:50.359Z,83.29
2024-03-02T21:09:16.815Z,84.09
2024-03-02T21:11:45.514Z,83.83
2024-03-02T21:14:12.444Z,84.32
2024-03-02T21:16:41.267Z,84.55
2024-03-02T21:19:08.867Z,84.65
2024-03-02T21:21:36.566Z,85.22
2024-03-02T21:24:03.179Z,84.85
2024-03-02T21:26:29.542Z,84.72
2024-03-02T21:28:55.942Z,85.69
2024-03-02T21:31:22.416Z,86.02
2024-03-02T21:33:48.935Z,85.02
2024-03-02T21:36:15.327Z,84.81
2024-03-02T21:38:41.724Z,84.96
2024-03-02T21:41:08.161Z,85.84
2024-03-02T21:43:35.108Z,86.46
2024-03-02T21:46:01.707Z,85.50
2024-03-02T21:48:28.213Z,85.59
2024-03-02T21:50:54.642Z,85.32
2024-03-02T21:53:21.126Z,86.47
2024-03-02T21:55:47.554Z,86.59
2024-03-02T21:58:14.396Z,87.01
2024-03-02T22:00:41.021Z,86.92
2024-03-02T22:03:07.587Z,86.66
2024-03-02T22:05:36.066Z,86.71
2024-03-02T22:08:02.503Z,86.42
2024-03-02T22:10:30.590Z,86.10
2024-03-02T22:12:57.206Z,86.83
2024-03-02T22:15:23.789Z,86.84
2024-03-02T22:17:50.303Z,87.42
2024-03-02T22:20:16.715Z,87.08
2024-03-02T22:22:43.123Z,87.46
2024-03-02T22:25:10.150Z,87.41
2024-03-02T22:27:40.719Z,87.24
2024-03-02T22:30:08.878Z,87.99
2024-03-02T22:32:35.370Z,87.26
2024-03-02T22:35:02.089Z,87.05
2024-03-02T22:37:28.509Z,87.62
2024-03-02T22:39:55.017Z,87.63
2024-03-02T22:42:21.454Z,87.69
2024-03-02T22:44:47.945Z,88.85
2024-03-02T22:47:14.399Z,88.23
2024-03-02T22:49:40.884Z,87.68
2024-03-02T22:52:07.594Z,88.34
2024-03-02T22:54:34.088Z,88.50
2024-03-02T22:57:01.974Z,88.82
2024-03-02T22:59:28.452Z,88.50
2024-03-02T23:01:55.550Z,88.22
2024-03-02T23:04:22.167Z,88.95
2024-03-02T23:06:49.477Z,88.74
2024-03-02T23:09:15.996Z,88.39
2024-03-02T23:11:42.386Z,89.11
2024-03-02T23:14:09.210Z,89.13
2024-03-02T23:16:38.158Z,89.21
2024-03-02T23:19:04.657Z,88.28
2024-03-02T23:21:31.087Z,88.51
2024-03-02T23:23:58.715Z,88.84
2024-03-02T23:26:26.068Z,88.64
2024-03-02T23:28:52.612Z,89.07
2024-03-02T23:31:19.621Z,89.50
2024-03-02T23:33:48.072Z,88.92
2024-03-02T23:36:14.550Z,88.43
2024-03-02T23:38:40.972Z,89.52
2024-03-02T23:41:11.481Z,89.46
2024-03-02T23:43:38.778Z,89.21
2024-03-02T23:46:06.456Z,89.92
2024-03-02T23:48:33.112Z,88.97
2024-03-02T23:50:59.570Z,90.26
2024-03-02T23:53:25.936Z,90.70
2024-03-02T23:55:53.254Z,90.30
2024-03-02T23:58:20.644Z,90.11
